Time;durP1;ratioP1;P1;durP2;ratioP2;P2;SDS_P1;SDS_P2;PMS_P1;PMS_P2;Temp;Humidity;BMP_temperature;BMP_pressure;BME280_temperature;BME280_humidity;BME280_pressure;Samples;Min_cycle;Max_cycle;Signal;HPM_P1;HPM_P2
2023/02/19 00:02:21;;;;;;;1.60;1.10;;;10.80;98.20;;;;;;5006364;28;21000;-76
2023/02/19 00:04:48;;;;;;;1.60;1.10;;;10.80;98.20;;;;;;5022786;28;20577;-75
2023/02/19 00:07:15;;;;;;;1.60;1.07;;;10.80;98.20;;;;;;5009035;28;20996;-75
2023/02/19 00:09:42;;;;;;;1.60;1.10;;;10.80;98.20;;;;;;5024979;28;20463;-75
2023/02/19 00:12:09;;;;;;;1.60;1.10;;;10.80;98.20;;;;;;5004638;28;21083;-75
2023/02/19 00:14:36;;;;;;;1.60;1.20;;;10.80;98.20;;;;;;5024079;28;20479;-75
2023/02/19 00:17:04;;;;;;;1.70;1.53;;;10.80;98.20;;;;;;5009482;28;20983;-76
2023/02/19 00:19:32;;;;;;;1.60;1.10;;;10.80;98.20;;;;;;5022064;28;20548;-76
2023/02/19 00:21:59;;;;;;;1.60;1.10;;;10.80;98.20;;;;;;4999179;28;20492;-76
2023/02/19 00:24:26;;;;;;;1.60;1.17;;;10.80;98.20;;;;;;5020708;28;20494;-75
2023/02/19 00:26:53;;;;;;;1.60;1.20;;;10.80;98.20;;;;;;5009851;28;20884;-75
2023/02/19 00:29:21;;;;;;;1.60;1.10;;;10.80;98.20;;;;;;5022024;28;20469;-75
2023/02/19 00:31:48;;;;;;;1.60;1.10;;;10.80;98.20;;;;;;5003101;28;20486;-75
2023/02/19 00:34:17;;;;;;;1.60;1.10;;;10.80;98.20;;;;;;5018911;28;20460;-76
2023/02/19 00:36:44;;;;;;;1.60;1.10;;;10.80;98.20;;;;;;5009380;28;20505;-76
2023/02/19 00:39:14;;;;;;;1.60;1.10;;;10.70;98.20;;;;;;5015500;28;20471;-76
2023/02/19 00:41:41;;;;;;;1.60;1.10;;;10.70;98.20;;;;;;5004938;28;20525;-76
2023/02/19 00:44:10;;;;;;;1.60;1.10;;;10.70;98.20;;;;;;5021330;28;20486;-75
2023/02/19 00:46:39;;;;;;;1.60;1.10;;;10.80;98.20;;;;;;5008120;28;20570;-76
2023/02/19 00:49:07;;;;;;;1.60;1.10;;;10.80;98.20;;;;;;5019044;28;20494;-75
2023/02/19 00:51:38;;;;;;;1.60;1.20;;;10.80;98.20;;;;;;5016843;28;20566;-75
2023/02/19 00:54:06;;;;;;;1.60;1.10;;;10.80;98.20;;;;;;5013325;28;20495;-75
2023/02/19 00:56:34;;;;;;;1.60;1.10;;;10.80;98.20;;;;;;5010046;28;20519;-76
2023/02/19 00:59:02;;;;;;;1.60;1.20;;;10.80;98.20;;;;;;5025847;28;20515;-75
2023/02/19 01:01:29;;;;;;;1.60;1.20;;;10.80;98.20;;;;;;5008620;28;20495;-76
2023/02/19 01:03:56;;;;;;;1.60;1.10;;;10.80;98.20;;;;;;5020310;28;20940;-75
2023/02/19 01:06:23;;;;;;;1.60;1.10;;;10.80;98.20;;;;;;5013950;28;20490;-75
2023/02/19 01:08:52;;;;;;;1.60;1.10;;;10.80;98.20;;;;;;5024288;28;20502;-77
2023/02/19 01:11:20;;;;;;;1.60;1.17;;;10.80;98.20;;;;;;5017331;28;20483;-75
2023/02/19 01:13:47;;;;;;;1.60;1.13;;;10.80;98.20;;;;;;5016315;28;20982;-76
2023/02/19 01:16:16;;;;;;;1.60;1.10;;;10.80;98.20;;;;;;5015430;28;21443;-75
2023/02/19 01:18:43;;;;;;;1.60;1.10;;;10.80;98.20;;;;;;5027783;28;20473;-76
2023/02/19 01:21:14;;;;;;;1.60;1.17;;;10.80;98.20;;;;;;5009338;28;20525;-75
2023/02/19 01:23:42;;;;;;;1.60;1.10;;;10.80;98.20;;;;;;5006130;28;20522;-76
2023/02/19 01:26:14;;;;;;;1.60;1.30;;;10.80;98.20;;;;;;5003439;28;20500;-76
2023/02/19 01:28:41;;;;;;;1.60;1.20;;;10.80;98.20;;;;;;5027653;28;20799;-75
2023/02/19 01:31:11;;;;;;;1.60;1.10;;;10.80;98.20;;;;;;5014629;28;20481;-76
2023/02/19 01:33:38;;;;;;;1.60;1.20;;;10.80;98.20;;;;;;5019566;28;20977;-76
2023/02/19 01:36:07;;;;;;;1.60;1.10;;;10.80;98.20;;;;;;5007831;28;20904;-76
2023/02/19 01:38:34;;;;;;;1.60;1.10;;;10.80;98.20;;;;;;5021962;28;20464;-76
2023/02/19 01:41:04;;;;;;;1.60;1.10;;;10.90;98.20;;;;;;5016013;28;20868;-76
2023/02/19 01:43:35;;;;;;;1.60;1.00;;;10.90;98.20;;;;;;5017148;28;20655;-75
2023/02/19 01:46:02;;;;;;;1.60;1.20;;;10.90;98.20;;;;;;5002615;28;20557;-76
2023/02/19 01:48:34;;;;;;;1.60;1.10;;;10.80;98.20;;;;;;5024644;28;20521;-76
2023/02/19 01:51:07;;;;;;;1.60;1.20;;;10.90;98.20;;;;;;5008201;28;20456;-76
2023/02/19 01:53:37;;;;;;;1.60;1.00;;;10.90;98.20;;;;;;5014023;28;20459;-75
2023/02/19 01:56:06;;;;;;;1.60;1.10;;;10.90;98.20;;;;;;5012088;28;20492;-76
2023/02/19 01:58:37;;;;;;;1.60;1.20;;;10.90;98.20;;;;;;5027743;28;20510;-76
2023/02/19 02:01:07;;;;;;;1.60;1.10;;;10.90;98.20;;;;;;5012215;28;20542;-75
2023/02/19 02:03:36;;;;;;;1.60;1.10;;;10.90;98.20;;;;;;5019698;28;20521;-76
2023/02/19 02:06:09;;;;;;;1.60;1.20;;;10.90;98.20;;;;;;5015297;28;20492;-75
2023/02/19 02:11:22;;;;;;;1.80;1.40;;;10.90;98.20;;;;;;5011943;28;20470;-76
2023/02/19 02:13:51;;;;;;;1.60;1.10;;;10.90;98.20;;;;;;5023347;28;20507;-75
2023/02/19 02:16:24;;;;;;;1.60;1.10;;;10.90;98.20;;;;;;5010545;28;20485;-75
2023/02/19 02:19:01;;;;;;;1.60;1.10;;;10.90;98.20;;;;;;5023907;28;20482;-76
2023/02/19 02:21:50;;;;;;;1.60;1.20;;;10.90;98.20;;;;;;5011184;28;21133;-76
2023/02/19 02:24:58;;;;;;;1.60;1.10;;;10.90;98.20;;;;;;5002595;28;20797;-76
2023/02/19 02:27:42;;;;;;;1.60;1.17;;;10.90;98.20;;;;;;4997683;28;21032;-75
2023/02/19 02:30:31;;;;;;;1.60;1.20;;;10.90;98.20;;;;;;5010922;28;20456;-75
2023/02/19 02:33:04;;;;;;;1.60;1.20;;;10.90;98.20;;;;;;4997418;28;21013;-74
2023/02/19 02:35:37;;;;;;;1.60;1.17;;;10.80;98.20;;;;;;5019063;28;20483;-75
2023/02/19 02:38:09;;;;;;;1.60;1.10;;;10.80;98.20;;;;;;4999796;28;20582;-76
2023/02/19 02:40:39;;;;;;;1.60;1.10;;;10.80;98.20;;;;;;5026136;28;20907;-76
2023/02/19 02:43:06;;;;;;;1.83;1.57;;;10.80;98.20;;;;;;5001155;28;20579;-75
2023/02/19 02:45:35;;;;;;;1.60;1.17;;;10.70;98.20;;;;;;5014759;28;20488;-76
2023/02/19 02:48:08;;;;;;;1.60;1.20;;;10.70;98.20;;;;;;4999000;28;20506;-76
2023/02/19 02:50:38;;;;;;;1.70;1.40;;;10.70;98.20;;;;;;5016547;28;20562;-75
2023/02/19 02:59:25;;;;;;;1.60;1.10;;;10.70;98.20;;;;;;5038719;28;20526;-76
2023/02/19 03:02:12;;;;;;;1.60;1.23;;;10.70;98.20;;;;;;5022780;28;20491;-76
2023/02/19 03:07:34;;;;;;;1.60;1.30;;;10.70;98.20;;;;;;5032729;28;20994;-76
2023/02/19 03:10:04;;;;;;;1.60;1.10;;;10.70;98.20;;;;;;5038349;28;20461;-76
2023/02/19 03:20:56;;;;;;;1.60;1.20;;;10.70;98.20;;;;;;5028763;28;20514;-76
2023/02/19 03:26:02;;;;;;;1.60;1.20;;;10.60;98.20;;;;;;5036989;28;20462;-76
2023/02/19 03:26:13;;;;;;;1.60;1.20;;;10.70;98.20;;;;;;5025360;28;20586;-76
2023/02/19 03:31:29;;;;;;;1.60;1.10;;;10.60;98.20;;;;;;5023606;28;20563;-76
2023/02/19 03:34:02;;;;;;;1.70;1.37;;;10.60;98.20;;;;;;5025681;28;20520;-76
2023/02/19 03:36:35;;;;;;;1.60;1.00;;;10.60;98.20;;;;;;5027107;28;20482;-76
2023/02/19 03:39:04;;;;;;;1.60;1.10;;;10.60;98.20;;;;;;5039354;28;20458;-76
2023/02/19 03:41:36;;;;;;;1.60;1.10;;;10.60;98.20;;;;;;5036750;28;20562;-76
2023/02/19 03:44:10;;;;;;;1.60;1.20;;;10.60;98.20;;;;;;5039707;28;21117;-76
2023/02/19 03:46:45;;;;;;;1.60;1.10;;;10.60;98.20;;;;;;5037588;28;20540;-76
2023/02/19 03:49:22;;;;;;;1.60;1.10;;;10.60;98.20;;;;;;5042227;28;20504;-76
2023/02/19 03:51:54;;;;;;;1.60;1.10;;;10.60;98.20;;;;;;5033415;28;20683;-77
2023/02/19 03:54:30;;;;;;;1.60;1.10;;;10.60;98.20;;;;;;5045782;28;20472;-76
2023/02/19 03:57:03;;;;;;;1.60;1.17;;;10.60;98.20;;;;;;5026795;28;20693;-76
2023/02/19 03:59:34;;;;;;;1.60;1.17;;;10.60;98.20;;;;;;5031496;28;20509;-76
2023/02/19 04:02:07;;;;;;;2.87;2.17;;;10.60;98.20;;;;;;5025181;28;20577;-76
2023/02/19 04:04:39;;;;;;;1.57;1.10;;;10.60;98.20;;;;;;5038324;28;20754;-76
2023/02/19 04:07:07;;;;;;;1.60;1.10;;;10.60;98.20;;;;;;5022747;28;21026;-77
2023/02/19 04:09:37;;;;;;;1.60;1.10;;;10.60;98.20;;;;;;5033643;28;20729;-76
2023/02/19 04:12:05;;;;;;;1.60;1.10;;;10.60;98.20;;;;;;5024270;28;21174;-76
2023/02/19 04:14:38;;;;;;;1.80;1.53;;;10.50;98.20;;;;;;5032698;28;21042;-75
2023/02/19 04:17:09;;;;;;;1.60;1.20;;;10.60;98.20;;;;;;5023849;28;20492;-76
2023/02/19 04:19:40;;;;;;;1.60;1.10;;;10.50;98.20;;;;;;5033487;28;20459;-76
2023/02/19 04:22:09;;;;;;;1.60;1.10;;;10.50;98.20;;;;;;5023322;28;20487;-76
2023/02/19 04:24:40;;;;;;;1.60;1.23;;;10.50;98.20;;;;;;5031365;28;20482;-75
2023/02/19 04:27:09;;;;;;;1.60;1.10;;;10.50;98.20;;;;;;5020953;28;20890;-75
2023/02/19 04:29:36;;;;;;;1.60;1.20;;;10.50;98.20;;;;;;5034267;28;20966;-75
2023/02/19 04:32:04;;;;;;;1.60;1.10;;;10.50;98.20;;;;;;5022275;28;20557;-76
2023/02/19 04:34:31;;;;;;;1.60;1.10;;;10.50;98.20;;;;;;5033040;28;20582;-76
2023/02/19 04:36:59;;;;;;;1.60;1.20;;;10.40;98.20;;;;;;5026080;28;20487;-77
2023/02/19 04:39:26;;;;;;;1.60;1.20;;;10.40;98.20;;;;;;5034112;28;20981;-76
2023/02/19 04:41:53;;;;;;;1.60;1.10;;;10.40;98.20;;;;;;5025409;28;20999;-75
2023/02/19 04:44:20;;;;;;;1.60;1.00;;;10.40;98.20;;;;;;5035775;28;20473;-75
2023/02/19 04:46:48;;;;;;;1.60;1.20;;;10.40;98.20;;;;;;5022579;28;20932;-75
2023/02/19 04:49:15;;;;;;;1.60;1.10;;;10.40;98.20;;;;;;5030854;28;20868;-75
2023/02/19 04:51:42;;;;;;;1.60;1.10;;;10.40;98.20;;;;;;5024272;28;20483;-75
2023/02/19 04:54:10;;;;;;;1.60;1.17;;;10.40;98.20;;;;;;5035527;28;20505;-75
2023/02/19 04:56:37;;;;;;;1.60;1.10;;;10.40;98.20;;;;;;5022692;28;20483;-73
2023/02/19 04:59:04;;;;;;;1.60;1.20;;;10.40;98.20;;;;;;5034325;28;20995;-75
2023/02/19 05:01:32;;;;;;;1.60;1.10;;;10.40;98.20;;;;;;5023856;28;20491;-75
2023/02/19 05:03:58;;;;;;;1.60;1.10;;;10.40;98.20;;;;;;5034096;28;20455;-74
2023/02/19 05:06:26;;;;;;;1.60;1.10;;;10.40;98.20;;;;;;5024291;28;20492;-75
2023/02/19 05:08:53;;;;;;;1.60;1.10;;;10.30;98.20;;;;;;5031101;28;20531;-75
2023/02/19 05:11:22;;;;;;;1.70;1.53;;;10.30;98.20;;;;;;5023545;28;20573;-75
2023/02/19 05:13:49;;;;;;;1.60;1.17;;;10.30;98.20;;;;;;5032139;28;21022;-76
2023/02/19 05:16:17;;;;;;;1.60;1.30;;;10.30;98.20;;;;;;5020262;28;20951;-75
2023/02/19 05:18:46;;;;;;;1.60;1.10;;;10.30;98.20;;;;;;5031591;28;20794;-75
2023/02/19 05:21:14;;;;;;;1.60;1.27;;;10.30;98.20;;;;;;5024828;28;21321;-76
2023/02/19 05:23:41;;;;;;;1.60;1.20;;;10.20;98.20;;;;;;5034288;28;20537;-77
2023/02/19 05:26:12;;;;;;;1.67;1.30;;;10.20;98.20;;;;;;5023607;28;21010;-75
2023/02/19 05:28:40;;;;;;;1.60;1.10;;;10.20;98.20;;;;;;5034212;28;20519;-76
2023/02/19 05:31:08;;;;;;;1.60;1.10;;;10.20;98.20;;;;;;5024463;28;20992;-76
2023/02/19 05:33:36;;;;;;;1.60;1.20;;;10.20;98.20;;;;;;5028354;28;20521;-75
2023/02/19 05:36:07;;;;;;;1.60;1.10;;;10.20;98.20;;;;;;5022695;28;21532;-75
2023/02/19 05:38:35;;;;;;;1.60;1.10;;;10.10;98.20;;;;;;5032263;28;20455;-75
2023/02/19 05:41:10;;;;;;;1.60;1.10;;;10.10;98.20;;;;;;5023039;28;20488;-75
2023/02/19 05:43:37;;;;;;;1.60;1.20;;;10.10;98.20;;;;;;5031280;28;20463;-76
2023/02/19 05:46:06;;;;;;;1.60;1.20;;;10.10;98.20;;;;;;5029170;28;20835;-75
2023/02/19 05:48:34;;;;;;;1.60;1.20;;;10.10;98.20;;;;;;5031758;28;20544;-75
2023/02/19 05:51:02;;;;;;;1.60;1.30;;;10.10;98.20;;;;;;5024723;28;20505;-75
2023/02/19 05:53:29;;;;;;;1.60;1.30;;;10.10;98.20;;;;;;5030583;28;20459;-76
2023/02/19 05:55:57;;;;;;;1.60;1.10;;;10.10;98.20;;;;;;5023084;28;20543;-76
2023/02/19 05:58:24;;;;;;;1.60;1.30;;;10.00;98.20;;;;;;5035758;28;20473;-77
2023/02/19 06:00:51;;;;;;;1.60;1.20;;;10.00;98.20;;;;;;5028391;28;20927;-78
2023/02/19 06:03:20;;;;;;;1.80;1.20;;;10.00;98.20;;;;;;5035897;28;21019;-78
2023/02/19 06:05:47;;;;;;;1.60;1.20;;;10.00;98.20;;;;;;5033139;28;20483;-78
2023/02/19 06:08:14;;;;;;;1.60;1.37;;;10.00;98.20;;;;;;5005688;28;20875;-77
2023/02/19 06:10:42;;;;;;;1.60;1.37;;;10.00;98.20;;;;;;5038314;28;20462;-76
2023/02/19 06:13:10;;;;;;;1.60;1.20;;;10.00;98.20;;;;;;5024922;28;20571;-74
2023/02/19 06:15:38;;;;;;;1.60;1.20;;;10.00;98.20;;;;;;5043521;28;20479;-78
2023/02/19 06:18:05;;;;;;;1.70;1.40;;;10.00;98.20;;;;;;5021038;28;20498;-76
2023/02/19 06:20:34;;;;;;;1.60;1.20;;;10.00;98.20;;;;;;5028687;28;20466;-77
2023/02/19 06:23:00;;;;;;;1.60;1.10;;;10.00;98.20;;;;;;5020744;28;20914;-77
2023/02/19 06:25:28;;;;;;;1.60;1.20;;;10.00;98.20;;;;;;5035760;28;20573;-77
2023/02/19 06:27:55;;;;;;;1.77;1.53;;;10.00;98.20;;;;;;5016381;28;20570;-77
2023/02/19 06:30:22;;;;;;;1.60;1.20;;;10.00;98.20;;;;;;5042085;28;20471;-77
2023/02/19 06:32:52;;;;;;;1.60;1.10;;;10.00;98.20;;;;;;5020819;28;20542;-77
2023/02/19 06:35:21;;;;;;;1.60;1.10;;;10.00;98.20;;;;;;5044678;28;20564;-76
2023/02/19 06:37:50;;;;;;;1.60;1.10;;;10.00;98.20;;;;;;5030995;28;20578;-76
2023/02/19 06:40:17;;;;;;;1.60;1.30;;;10.00;98.20;;;;;;5036111;28;20502;-76
2023/02/19 06:42:44;;;;;;;1.60;1.10;;;9.90;98.20;;;;;;5020221;28;20574;-75
2023/02/19 06:45:11;;;;;;;1.60;1.10;;;9.90;98.20;;;;;;5039010;28;20518;-75
2023/02/19 06:47:39;;;;;;;1.90;1.40;;;9.90;98.20;;;;;;5023564;28;20512;-77
2023/02/19 06:50:06;;;;;;;1.60;1.20;;;9.90;98.20;;;;;;5036774;28;20516;-75
2023/02/19 06:52:33;;;;;;;1.60;1.10;;;9.90;98.20;;;;;;5020597;28;20582;-75
2023/02/19 06:55:02;;;;;;;1.60;1.20;;;9.90;98.20;;;;;;5041357;28;20490;-75
2023/02/19 06:57:29;;;;;;;1.60;1.30;;;9.90;98.20;;;;;;5020047;28;20481;-76
2023/02/19 06:59:56;;;;;;;1.60;1.13;;;9.90;98.20;;;;;;5043846;28;20465;-76
2023/02/19 07:02:23;;;;;;;1.60;1.20;;;9.90;98.20;;;;;;5024688;28;20483;-76
2023/02/19 07:04:50;;;;;;;1.60;1.10;;;9.90;98.20;;;;;;5034254;28;20481;-75
2023/02/19 07:07:17;;;;;;;1.73;1.63;;;9.90;98.20;;;;;;5021616;28;20904;-75
2023/02/19 07:09:44;;;;;;;1.60;1.10;;;9.90;98.20;;;;;;5033664;28;20482;-76
2023/02/19 07:12:13;;;;;;;1.60;1.20;;;9.90;98.20;;;;;;5025547;28;20470;-75
2023/02/19 07:14:40;;;;;;;1.60;1.20;;;9.90;98.20;;;;;;5038248;28;20600;-75
2023/02/19 07:17:07;;;;;;;1.70;1.40;;;9.90;98.20;;;;;;5034695;28;20490;-75
2023/02/19 07:19:34;;;;;;;1.70;1.30;;;9.90;98.20;;;;;;5041540;28;20870;-76
2023/02/19 07:22:02;;;;;;;1.60;1.10;;;9.90;98.20;;;;;;5031283;28;20557;-76
2023/02/19 07:24:29;;;;;;;1.60;1.20;;;9.90;98.20;;;;;;5044691;28;20467;-75
2023/02/19 07:26:56;;;;;;;1.60;1.20;;;9.90;98.20;;;;;;5028069;28;20487;-75
2023/02/19 07:29:25;;;;;;;1.60;1.10;;;9.90;98.20;;;;;;5040761;28;20459;-75
2023/02/19 07:31:52;;;;;;;1.60;1.20;;;9.90;98.20;;;;;;5026986;28;20576;-76
2023/02/19 07:34:19;;;;;;;1.60;1.20;;;9.90;98.20;;;;;;5038422;28;21175;-75
2023/02/19 07:36:46;;;;;;;1.60;1.13;;;9.90;98.20;;;;;;5027430;28;20581;-76
2023/02/19 07:39:14;;;;;;;1.60;1.20;;;9.90;98.20;;;;;;5044539;28;20457;-76
2023/02/19 07:41:41;;;;;;;1.60;1.20;;;10.00;98.20;;;;;;5026507;28;20565;-75
2023/02/19 07:44:12;;;;;;;1.60;1.10;;;10.00;98.20;;;;;;5040652;28;20467;-75
2023/02/19 07:46:40;;;;;;;1.60;1.10;;;10.00;98.20;;;;;;5018560;28;20484;-76
2023/02/19 07:49:08;;;;;;;1.60;1.20;;;10.00;98.20;;;;;;5038809;28;20462;-76
2023/02/19 07:51:35;;;;;;;1.60;1.20;;;9.90;98.20;;;;;;5027149;28;21007;-76
2023/02/19 07:54:02;;;;;;;2.17;1.83;;;10.00;98.20;;;;;;5045270;28;20551;-77
2023/02/19 07:56:30;;;;;;;1.60;1.10;;;10.00;98.20;;;;;;5028378;28;20488;-76
2023/02/19 07:58:57;;;;;;;1.60;1.20;;;10.00;98.20;;;;;;5047566;28;20508;-76
2023/02/19 08:04:08;;;;;;;1.60;1.20;;;10.00;98.20;;;;;;5039526;28;20462;-77
2023/02/19 08:06:36;;;;;;;1.70;1.40;;;10.00;98.20;;;;;;5026642;28;20927;-76
2023/02/19 08:09:04;;;;;;;1.60;1.10;;;10.00;98.20;;;;;;5042155;28;20487;-77
2023/02/19 08:14:16;;;;;;;1.60;1.30;;;10.10;98.20;;;;;;5041286;28;20764;-76
2023/02/19 08:16:49;;;;;;;1.60;1.30;;;10.10;98.20;;;;;;5026759;28;20478;-77
2023/02/19 08:19:18;;;;;;;1.60;1.20;;;10.10;98.20;;;;;;5045100;28;20467;-76
2023/02/19 08:21:45;;;;;;;1.60;1.10;;;10.10;98.20;;;;;;5030866;28;21022;-76
2023/02/19 08:24:12;;;;;;;1.60;1.10;;;10.20;98.20;;;;;;5046793;28;20462;-77
2023/02/19 08:26:39;;;;;;;1.60;1.20;;;10.20;98.20;;;;;;5026678;28;20487;-76
2023/02/19 08:29:07;;;;;;;1.60;1.10;;;10.20;98.20;;;;;;5037340;28;20458;-77
2023/02/19 08:31:34;;;;;;;1.60;1.10;;;10.30;98.20;;;;;;5028603;28;20483;-76
2023/02/19 08:34:02;;;;;;;1.60;1.10;;;10.30;98.20;;;;;;5040822;28;20474;-77
2023/02/19 08:36:30;;;;;;;1.60;1.10;;;10.30;98.20;;;;;;5025261;28;20486;-77
2023/02/19 08:38:58;;;;;;;1.60;1.10;;;10.30;98.20;;;;;;5038981;28;20982;-77
2023/02/19 08:41:25;;;;;;;1.60;1.20;;;10.40;98.20;;;;;;5029656;28;20491;-77
2023/02/19 08:43:52;;;;;;;1.60;1.20;;;10.40;98.20;;;;;;5035108;28;21007;-77
2023/02/19 08:46:20;;;;;;;1.60;1.20;;;10.50;98.20;;;;;;5023300;28;21140;-77
2023/02/19 08:48:47;;;;;;;1.60;1.13;;;10.50;98.20;;;;;;5045919;28;20463;-77
2023/02/19 08:51:14;;;;;;;1.60;1.10;;;10.50;98.20;;;;;;5033297;28;20482;-76
2023/02/19 08:53:42;;;;;;;1.60;1.20;;;10.60;98.20;;;;;;5032388;28;20906;-76
2023/02/19 08:56:11;;;;;;;1.60;1.20;;;10.70;98.20;;;;;;5025267;28;21233;-77
2023/02/19 08:58:39;;;;;;;1.60;1.10;;;10.70;98.20;;;;;;5034223;28;20901;-77
2023/02/19 09:01:09;;;;;;;1.60;1.10;;;10.70;98.20;;;;;;5029947;28;20466;-77
2023/02/19 09:03:36;;;;;;;1.60;1.10;;;10.80;98.20;;;;;;5036681;28;21016;-75
2023/02/19 09:06:04;;;;;;;2.50;2.30;;;10.90;98.20;;;;;;5032307;28;20987;-74
2023/02/19 09:08:31;;;;;;;1.60;1.13;;;10.90;98.20;;;;;;5033572;28;20529;-76
2023/02/19 09:11:03;;;;;;;1.60;1.00;;;11.00;98.20;;;;;;5024771;28;20466;-77
2023/02/19 09:13:31;;;;;;;1.60;1.10;;;11.00;98.20;;;;;;5038225;28;20447;-77
2023/02/19 09:15:58;;;;;;;1.60;1.20;;;11.10;98.20;;;;;;5027387;28;20489;-76
2023/02/19 09:18:26;;;;;;;1.60;1.10;;;11.10;98.20;;;;;;5035189;28;20536;-77
2023/02/19 09:20:53;;;;;;;1.60;1.10;;;11.20;98.20;;;;;;5026324;28;20470;-77
2023/02/19 09:23:21;;;;;;;1.60;1.07;;;11.20;98.20;;;;;;5038050;28;20986;-77
2023/02/19 09:25:48;;;;;;;1.60;1.13;;;11.20;98.20;;;;;;5032168;28;20479;-77
2023/02/19 09:28:16;;;;;;;1.60;1.20;;;11.20;98.20;;;;;;5035125;28;20578;-78
2023/02/19 09:30:44;;;;;;;1.60;1.20;;;11.10;98.20;;;;;;5034634;28;20463;-76
2023/02/19 09:33:11;;;;;;;1.60;1.10;;;11.10;98.20;;;;;;5021741;28;20698;-77
2023/02/19 09:35:39;;;;;;;1.60;1.10;;;11.10;98.20;;;;;;5034438;28;20987;-77
2023/02/19 09:38:09;;;;;;;1.60;1.10;;;11.00;98.20;;;;;;5029229;28;21007;-76
2023/02/19 09:40:37;;;;;;;1.60;1.10;;;11.00;98.20;;;;;;5037544;28;20466;-76
2023/02/19 09:43:07;;;;;;;2.90;2.70;;;11.00;98.20;;;;;;5023990;28;20493;-76
2023/02/19 09:45:37;;;;;;;1.60;1.10;;;11.00;98.20;;;;;;5036421;28;21061;-76
2023/02/19 09:48:06;;;;;;;1.60;1.07;;;11.00;98.20;;;;;;5024443;28;20837;-75
2023/02/19 09:50:37;;;;;;;1.60;1.10;;;10.90;98.20;;;;;;5039804;28;20459;-74
2023/02/19 09:53:12;;;;;;;1.60;1.00;;;10.90;98.20;;;;;;5020833;28;20497;-76
2023/02/19 09:55:42;;;;;;;1.60;1.10;;;10.90;98.20;;;;;;5031089;28;20873;-76
2023/02/19 09:58:23;;;;;;;1.60;1.10;;;10.90;98.20;;;;;;5022772;28;20485;-77
2023/02/19 10:00:53;;;;;;;1.60;1.10;;;10.90;98.20;;;;;;5021909;28;20498;-75
2023/02/19 10:03:29;;;;;;;1.60;1.10;;;10.90;98.20;;;;;;5031876;28;20484;-75
2023/02/19 10:05:58;;;;;;;1.60;1.10;;;10.90;98.20;;;;;;5021975;28;20479;-75
2023/02/19 10:08:26;;;;;;;1.60;1.10;;;10.90;98.20;;;;;;5034985;28;20466;-75
2023/02/19 10:10:54;;;;;;;1.60;1.10;;;10.80;98.20;;;;;;5024403;28;20491;-76
2023/02/19 10:13:28;;;;;;;1.60;1.10;;;10.80;98.20;;;;;;5030056;28;20469;-77
2023/02/19 10:15:58;;;;;;;1.60;1.10;;;10.70;98.20;;;;;;5025730;28;20565;-76
2023/02/19 10:18:28;;;;;;;1.60;1.20;;;10.70;98.20;;;;;;5035135;28;20457;-76
2023/02/19 10:20:56;;;;;;;1.60;1.10;;;10.80;98.20;;;;;;5024828;28;20904;-76
2023/02/19 10:23:25;;;;;;;1.60;1.10;;;10.90;98.20;;;;;;5030829;28;20580;-76
2023/02/19 10:25:56;;;;;;;1.60;1.20;;;11.00;98.20;;;;;;5027542;28;20518;-76
2023/02/19 10:28:26;;;;;;;1.60;1.10;;;11.00;98.20;;;;;;5038665;28;20487;-76
2023/02/19 10:30:58;;;;;;;1.60;1.10;;;11.10;98.20;;;;;;5022183;28;20467;-76
2023/02/19 10:33:26;;;;;;;1.60;1.00;;;11.10;98.20;;;;;;5031931;28;20511;-77
2023/02/19 10:35:56;;;;;;;1.60;1.10;;;11.20;98.20;;;;;;5024860;28;20479;-76
2023/02/19 10:38:27;;;;;;;1.60;1.00;;;11.10;98.20;;;;;;5038701;28;20466;-76
2023/02/19 10:41:04;;;;;;;1.60;1.13;;;11.20;98.20;;;;;;5028161;28;20532;-76
2023/02/19 10:43:35;;;;;;;1.60;1.10;;;11.10;98.20;;;;;;5039100;28;20478;-77
2023/02/19 10:46:07;;;;;;;1.60;1.20;;;11.10;98.20;;;;;;5023798;28;20674;-76
2023/02/19 10:48:37;;;;;;;1.60;1.13;;;11.20;98.20;;;;;;5039015;28;20514;-77
2023/02/19 10:51:08;;;;;;;1.60;1.10;;;11.40;98.20;;;;;;5030675;28;20471;-77
2023/02/19 10:53:43;;;;;;;1.60;1.10;;;11.60;98.20;;;;;;5030813;28;20465;-77
2023/02/19 10:56:13;;;;;;;1.60;1.20;;;11.70;98.20;;;;;;5021455;28;20482;-77
2023/02/19 10:58:43;;;;;;;1.60;1.20;;;11.70;98.20;;;;;;5034107;28;20542;-77
2023/02/19 11:01:24;;;;;;;1.60;1.00;;;11.80;98.20;;;;;;5025048;28;21065;-76
2023/02/19 11:03:52;;;;;;;1.60;1.10;;;11.80;98.20;;;;;;5031550;28;20885;-76
2023/02/19 11:06:22;;;;;;;1.60;1.20;;;11.80;98.20;;;;;;5023145;28;20536;-76
2023/02/19 11:08:55;;;;;;;1.60;1.00;;;11.90;98.20;;;;;;5033552;28;20471;-77
2023/02/19 11:11:28;;;;;;;1.60;1.10;;;11.90;98.20;;;;;;5030604;28;20474;-76
2023/02/19 11:13:57;;;;;;;1.60;1.00;;;12.00;98.20;;;;;;5029333;28;20459;-76
2023/02/19 11:16:39;;;;;;;1.67;1.10;;;12.10;98.20;;;;;;5024027;28;20494;-77
2023/02/19 11:19:06;;;;;;;1.60;1.00;;;12.20;98.20;;;;;;5037341;28;20455;-77
2023/02/19 11:21:33;;;;;;;1.60;1.10;;;12.20;98.20;;;;;;5031488;28;20486;-76
2023/02/19 11:24:02;;;;;;;1.60;1.00;;;12.20;98.20;;;;;;5048335;28;20501;-77
2023/02/19 11:26:34;;;;;;;1.60;1.07;;;12.30;98.20;;;;;;5019231;28;20586;-77
2023/02/19 11:29:11;;;;;;;1.60;1.10;;;12.30;98.20;;;;;;5034091;28;20502;-77
2023/02/19 11:31:39;;;;;;;1.60;1.00;;;12.50;98.20;;;;;;5020514;28;20700;-76
2023/02/19 11:34:33;;;;;;;1.60;1.00;;;12.50;98.20;;;;;;5034888;28;20458;-77
2023/02/19 11:37:14;;;;;;;1.60;1.00;;;12.50;98.20;;;;;;5026704;28;20479;-74
2023/02/19 11:39:44;;;;;;;1.60;1.10;;;12.40;98.20;;;;;;5032586;28;20459;-74
2023/02/19 11:42:28;;;;;;;1.60;1.00;;;12.30;98.20;;;;;;5024930;28;20485;-75
2023/02/19 11:45:11;;;;;;;1.60;1.10;;;12.30;98.20;;;;;;5029587;28;20475;-74
2023/02/19 11:48:07;;;;;;;1.60;1.00;;;12.40;98.20;;;;;;5021484;28;20494;-75
2023/02/19 11:50:52;;;;;;;1.60;1.10;;;12.50;98.20;;;;;;5039919;28;20453;-76
2023/02/19 11:53:26;;;;;;;1.60;1.00;;;12.60;98.20;;;;;;5006519;28;20510;-76
2023/02/19 11:56:15;;;;;;;1.60;1.00;;;12.80;98.20;;;;;;5022403;28;20983;-75
2023/02/19 11:59:01;;;;;;;1.60;1.00;;;12.90;98.20;;;;;;5035534;28;20487;-75
2023/02/19 12:01:58;;;;;;;1.60;1.10;;;12.90;98.20;;;;;;5029142;28;20481;-75
2023/02/19 12:05:00;;;;;;;1.60;1.10;;;12.90;98.20;;;;;;5016840;28;21476;-76
2023/02/19 12:08:04;;;;;;;1.60;1.10;;;12.90;98.20;;;;;;5025918;28;20966;-75
2023/02/19 12:10:42;;;;;;;1.60;1.10;;;12.90;98.20;;;;;;5041150;28;20455;-75
2023/02/19 12:13:18;;;;;;;1.60;1.00;;;12.90;98.20;;;;;;5029410;28;20995;-75
2023/02/19 12:16:03;;;;;;;1.60;1.10;;;13.00;98.20;;;;;;5035003;28;20570;-75
2023/02/19 12:18:55;;;;;;;1.60;1.13;;;13.00;98.20;;;;;;5006363;28;20974;-75
2023/02/19 12:21:37;;;;;;;1.60;1.07;;;12.90;98.20;;;;;;5030683;28;20463;-76
2023/02/19 12:24:37;;;;;;;1.60;1.00;;;12.90;98.20;;;;;;5039663;28;20490;-76
2023/02/19 12:27:16;;;;;;;1.60;1.00;;;12.90;98.20;;;;;;5024581;28;20707;-76
2023/02/19 12:29:57;;;;;;;1.60;1.00;;;12.80;98.20;;;;;;5038628;28;20458;-77
2023/02/19 12:32:41;;;;;;;1.60;1.10;;;12.70;98.20;;;;;;5029364;28;20581;-76
2023/02/19 12:35:34;;;;;;;1.60;1.10;;;12.70;98.20;;;;;;5036722;28;20479;-76
2023/02/19 12:38:18;;;;;;;1.60;1.10;;;12.60;98.20;;;;;;5024231;28;20479;-76
2023/02/19 12:40:56;;;;;;;1.57;1.00;;;12.60;98.20;;;;;;5039339;28;20458;-76
2023/02/19 12:43:24;;;;;;;1.60;1.10;;;12.50;98.20;;;;;;5003049;28;20486;-76
2023/02/19 12:45:56;;;;;;;1.60;1.07;;;12.50;98.20;;;;;;5022993;28;20490;-75
2023/02/19 12:48:32;;;;;;;1.60;1.10;;;12.40;98.20;;;;;;5029899;28;20475;-77
2023/02/19 12:51:04;;;;;;;1.60;1.10;;;12.40;98.20;;;;;;5024753;28;20471;-76
2023/02/19 12:53:40;;;;;;;1.60;1.00;;;12.40;98.20;;;;;;5032485;28;20458;-76
2023/02/19 12:56:14;;;;;;;1.57;1.00;;;12.40;98.20;;;;;;5025286;28;20558;-76
2023/02/19 12:58:45;;;;;;;1.60;1.10;;;12.50;98.20;;;;;;5030515;28;20518;-76
2023/02/19 13:01:18;;;;;;;1.60;1.00;;;12.50;98.20;;;;;;5027078;28;20513;-76
2023/02/19 13:03:52;;;;;;;1.60;1.00;;;12.60;98.20;;;;;;5031845;28;20570;-76
2023/02/19 13:06:27;;;;;;;1.60;1.00;;;12.60;98.20;;;;;;5026610;28;20760;-76
2023/02/19 13:08:59;;;;;;;1.60;1.00;;;12.70;98.20;;;;;;5032902;28;20458;-75
2023/02/19 13:11:31;;;;;;;1.60;1.10;;;12.70;98.20;;;;;;5028213;28;20491;-75
2023/02/19 13:14:03;;;;;;;2.03;1.83;;;12.70;98.20;;;;;;5028302;28;20559;-75
2023/02/19 13:16:33;;;;;;;1.60;1.03;;;12.70;98.20;;;;;;5025296;28;20525;-76
2023/02/19 13:19:02;;;;;;;1.60;1.10;;;12.70;98.20;;;;;;5033427;28;20522;-75
2023/02/19 13:24:26;;;;;;;1.50;1.00;;;12.80;98.20;;;;;;5037322;28;20477;-76
2023/02/19 13:27:12;;;;;;;1.53;1.00;;;12.90;98.20;;;;;;5025774;28;20483;-75
2023/02/19 13:29:52;;;;;;;1.60;1.10;;;12.80;98.20;;;;;;5032142;28;20473;-74
2023/02/19 13:32:50;;;;;;;1.60;1.10;;;12.80;98.20;;;;;;5026065;28;20494;-74
2023/02/19 13:35:26;;;;;;;1.70;1.57;;;12.60;98.20;;;;;;5029168;28;21023;-75
2023/02/19 13:37:55;;;;;;;1.60;1.10;;;12.50;98.20;;;;;;5017564;28;20514;-74
2023/02/19 13:40:31;;;;;;;1.60;1.10;;;12.30;98.20;;;;;;5033454;28;20554;-75